sensor_id;sensor_type;location;lat;lon;timestamp;P1;durP1;ratioP1;P2;durP2;ratioP2
21822;SDS011;11074;48.596;9.238;2023-08-06T00:00:08;4.78;;;4.28;;
21822;SDS011;11074;48.596;9.238;2023-08-06T00:02:34;5.88;;;4.68;;
21822;SDS011;11074;48.596;9.238;2023-08-06T00:05:00;5.10;;;4.32;;
21822;SDS011;11074;48.596;9.238;2023-08-06T00:07:26;6.72;;;4.63;;
21822;SDS011;11074;48.596;9.238;2023-08-06T00:09:51;5.13;;;4.57;;
21822;SDS011;11074;48.596;9.238;2023-08-06T00:12:17;6.97;;;5.38;;
21822;SDS011;11074;48.596;9.238;2023-08-06T00:14:43;5.47;;;4.53;;
21822;SDS011;11074;48.596;9.238;2023-08-06T00:17:09;6.55;;;4.80;;
21822;SDS011;11074;48.596;9.238;2023-08-06T00:19:34;6.28;;;4.80;;
21822;SDS011;11074;48.596;9.238;2023-08-06T00:22:00;5.28;;;4.78;;
21822;SDS011;11074;48.596;9.238;2023-08-06T00:24:27;5.63;;;4.57;;
21822;SDS011;11074;48.596;9.238;2023-08-06T00:26:53;5.60;;;4.70;;
21822;SDS011;11074;48.596;9.238;2023-08-06T00:29:18;5.93;;;4.38;;
21822;SDS011;11074;48.596;9.238;2023-08-06T00:31:44;4.68;;;4.05;;
21822;SDS011;11074;48.596;9.238;2023-08-06T00:34:10;5.38;;;4.05;;
21822;SDS011;11074;48.596;9.238;2023-08-06T00:36:36;6.70;;;4.30;;
21822;SDS011;11074;48.596;9.238;2023-08-06T00:39:01;5.78;;;4.65;;
21822;SDS011;11074;48.596;9.238;2023-08-06T00:41:27;5.47;;;4.32;;
21822;SDS011;11074;48.596;9.238;2023-08-06T00:43:53;6.25;;;4.78;;
21822;SDS011;11074;48.596;9.238;2023-08-06T00:46:19;5.72;;;4.10;;
21822;SDS011;11074;48.596;9.238;2023-08-06T00:48:45;6.38;;;4.00;;
21822;SDS011;11074;48.596;9.238;2023-08-06T00:51:12;7.80;;;3.80;;
21822;SDS011;11074;48.596;9.238;2023-08-06T00:53:38;4.20;;;3.58;;
21822;SDS011;11074;48.596;9.238;2023-08-06T00:56:05;6.13;;;3.67;;
21822;SDS011;11074;48.596;9.238;2023-08-06T00:58:34;4.57;;;3.33;;
21822;SDS011;11074;48.596;9.238;2023-08-06T01:01:01;4.97;;;3.60;;
21822;SDS011;11074;48.596;9.238;2023-08-06T01:03:27;4.30;;;3.30;;
21822;SDS011;11074;48.596;9.238;2023-08-06T01:05:53;4.13;;;3.35;;
21822;SDS011;11074;48.596;9.238;2023-08-06T01:08:30;5.15;;;3.22;;
21822;SDS011;11074;48.596;9.238;2023-08-06T01:11:35;4.82;;;3.38;;
21822;SDS011;11074;48.596;9.238;2023-08-06T01:14:18;5.65;;;3.17;;
21822;SDS011;11074;48.596;9.238;2023-08-06T01:16:57;4.07;;;3.42;;
21822;SDS011;11074;48.596;9.238;2023-08-06T01:19:24;3.90;;;3.03;;
21822;SDS011;11074;48.596;9.238;2023-08-06T01:21:50;6.25;;;3.45;;
21822;SDS011;11074;48.596;9.238;2023-08-06T01:24:15;4.70;;;2.92;;
21822;SDS011;11074;48.596;9.238;2023-08-06T01:26:42;6.43;;;3.17;;
21822;SDS011;11074;48.596;9.238;2023-08-06T01:29:22;4.30;;;3.28;;
21822;SDS011;11074;48.596;9.238;2023-08-06T01:32:04;5.55;;;3.38;;
21822;SDS011;11074;48.596;9.238;2023-08-06T01:34:35;4.13;;;3.22;;
21822;SDS011;11074;48.596;9.238;2023-08-06T01:37:05;5.88;;;3.33;;
21822;SDS011;11074;48.596;9.238;2023-08-06T01:39:35;5.47;;;3.50;;
21822;SDS011;11074;48.596;9.238;2023-08-06T01:42:01;4.53;;;3.47;;
21822;SDS011;11074;48.596;9.238;2023-08-06T01:44:27;3.75;;;2.97;;
21822;SDS011;11074;48.596;9.238;2023-08-06T01:46:53;4.80;;;3.05;;
21822;SDS011;11074;48.596;9.238;2023-08-06T01:49:18;4.72;;;3.20;;
21822;SDS011;11074;48.596;9.238;2023-08-06T01:51:44;3.88;;;3.38;;
21822;SDS011;11074;48.596;9.238;2023-08-06T01:54:10;3.50;;;3.08;;
21822;SDS011;11074;48.596;9.238;2023-08-06T01:56:35;5.45;;;3.05;;
21822;SDS011;11074;48.596;9.238;2023-08-06T01:59:01;4.00;;;3.03;;
21822;SDS011;11074;48.596;9.238;2023-08-06T02:01:27;8.30;;;2.90;;
21822;SDS011;11074;48.596;9.238;2023-08-06T02:03:52;4.25;;;3.08;;
21822;SDS011;11074;48.596;9.238;2023-08-06T02:06:18;3.22;;;2.70;;
21822;SDS011;11074;48.596;9.238;2023-08-06T02:08:44;2.95;;;2.65;;
21822;SDS011;11074;48.596;9.238;2023-08-06T02:11:10;4.15;;;2.67;;
21822;SDS011;11074;48.596;9.238;2023-08-06T02:13:35;6.53;;;2.65;;
21822;SDS011;11074;48.596;9.238;2023-08-06T02:16:01;2.67;;;2.33;;
21822;SDS011;11074;48.596;9.238;2023-08-06T02:18:27;3.40;;;2.63;;
21822;SDS011;11074;48.596;9.238;2023-08-06T02:20:58;3.00;;;2.50;;
21822;SDS011;11074;48.596;9.238;2023-08-06T02:23:26;3.45;;;2.50;;
21822;SDS011;11074;48.596;9.238;2023-08-06T02:26:02;2.50;;;2.03;;
21822;SDS011;11074;48.596;9.238;2023-08-06T02:28:29;3.83;;;2.20;;
21822;SDS011;11074;48.596;9.238;2023-08-06T02:30:56;4.07;;;2.20;;
21822;SDS011;11074;48.596;9.238;2023-08-06T02:33:22;3.85;;;2.00;;
21822;SDS011;11074;48.596;9.238;2023-08-06T02:35:48;4.72;;;2.33;;
21822;SDS011;11074;48.596;9.238;2023-08-06T02:38:14;4.40;;;1.95;;
21822;SDS011;11074;48.596;9.238;2023-08-06T02:40:46;3.65;;;2.28;;
21822;SDS011;11074;48.596;9.238;2023-08-06T02:43:12;3.10;;;1.85;;
21822;SDS011;11074;48.596;9.238;2023-08-06T02:45:38;4.38;;;2.17;;
21822;SDS011;11074;48.596;9.238;2023-08-06T02:48:04;3.50;;;2.08;;
21822;SDS011;11074;48.596;9.238;2023-08-06T02:50:30;4.57;;;2.45;;
21822;SDS011;11074;48.596;9.238;2023-08-06T02:52:56;3.95;;;1.98;;
21822;SDS011;11074;48.596;9.238;2023-08-06T02:55:21;3.63;;;2.30;;
21822;SDS011;11074;48.596;9.238;2023-08-06T02:57:47;4.97;;;2.03;;
21822;SDS011;11074;48.596;9.238;2023-08-06T03:00:13;5.00;;;1.92;;
21822;SDS011;11074;48.596;9.238;2023-08-06T03:02:38;4.65;;;2.45;;
21822;SDS011;11074;48.596;9.238;2023-08-06T03:05:04;3.83;;;1.88;;
21822;SDS011;11074;48.596;9.238;2023-08-06T03:07:31;4.70;;;2.30;;
21822;SDS011;11074;48.596;9.238;2023-08-06T03:09:58;3.92;;;2.25;;
21822;SDS011;11074;48.596;9.238;2023-08-06T03:12:26;4.13;;;2.30;;
21822;SDS011;11074;48.596;9.238;2023-08-06T03:14:52;4.07;;;2.45;;
21822;SDS011;11074;48.596;9.238;2023-08-06T03:17:17;4.40;;;2.63;;
21822;SDS011;11074;48.596;9.238;2023-08-06T03:19:43;3.72;;;2.20;;
21822;SDS011;11074;48.596;9.238;2023-08-06T03:22:09;2.90;;;2.10;;
21822;SDS011;11074;48.596;9.238;2023-08-06T03:24:34;4.10;;;2.20;;
21822;SDS011;11074;48.596;9.238;2023-08-06T03:27:00;3.63;;;2.40;;
21822;SDS011;11074;48.596;9.238;2023-08-06T03:29:26;2.78;;;2.30;;
21822;SDS011;11074;48.596;9.238;2023-08-06T03:31:52;5.40;;;2.42;;
21822;SDS011;11074;48.596;9.238;2023-08-06T03:34:18;4.18;;;2.15;;
21822;SDS011;11074;48.596;9.238;2023-08-06T03:36:43;4.47;;;2.20;;
21822;SDS011;11074;48.596;9.238;2023-08-06T03:39:09;6.10;;;2.60;;
21822;SDS011;11074;48.596;9.238;2023-08-06T03:41:35;3.10;;;2.05;;
21822;SDS011;11074;48.596;9.238;2023-08-06T03:44:00;3.58;;;2.25;;
21822;SDS011;11074;48.596;9.238;2023-08-06T03:46:28;3.50;;;2.05;;
21822;SDS011;11074;48.596;9.238;2023-08-06T03:48:54;6.35;;;2.55;;
21822;SDS011;11074;48.596;9.238;2023-08-06T03:51:21;4.57;;;2.45;;
21822;SDS011;11074;48.596;9.238;2023-08-06T03:53:47;5.57;;;2.60;;
21822;SDS011;11074;48.596;9.238;2023-08-06T03:56:13;3.67;;;2.33;;
21822;SDS011;11074;48.596;9.238;2023-08-06T03:58:38;5.05;;;2.38;;
21822;SDS011;11074;48.596;9.238;2023-08-06T04:01:04;5.10;;;2.10;;
21822;SDS011;11074;48.596;9.238;2023-08-06T04:03:30;4.40;;;2.10;;
21822;SDS011;11074;48.596;9.238;2023-08-06T04:05:55;5.85;;;2.00;;
21822;SDS011;11074;48.596;9.238;2023-08-06T04:08:21;4.97;;;1.75;;
21822;SDS011;11074;48.596;9.238;2023-08-06T04:10:53;16.83;;;2.88;;
21822;SDS011;11074;48.596;9.238;2023-08-06T04:13:18;3.95;;;1.85;;
21822;SDS011;11074;48.596;9.238;2023-08-06T04:15:45;4.00;;;2.13;;
21822;SDS011;11074;48.596;9.238;2023-08-06T04:18:11;3.60;;;1.83;;
21822;SDS011;11074;48.596;9.238;2023-08-06T04:20:43;5.18;;;1.85;;
21822;SDS011;11074;48.596;9.238;2023-08-06T04:25:36;3.17;;;1.65;;
21822;SDS011;11074;48.596;9.238;2023-08-06T04:28:02;5.03;;;1.65;;
21822;SDS011;11074;48.596;9.238;2023-08-06T04:30:28;2.80;;;1.40;;
21822;SDS011;11074;48.596;9.238;2023-08-06T04:32:53;2.33;;;1.30;;
21822;SDS011;11074;48.596;9.238;2023-08-06T04:35:21;3.53;;;1.20;;
21822;SDS011;11074;48.596;9.238;2023-08-06T04:37:47;3.08;;;1.30;;
21822;SDS011;11074;48.596;9.238;2023-08-06T04:40:12;2.20;;;1.08;;
21822;SDS011;11074;48.596;9.238;2023-08-06T04:42:38;3.75;;;1.17;;
21822;SDS011;11074;48.596;9.238;2023-08-06T04:45:04;1.80;;;1.00;;
21822;SDS011;11074;48.596;9.238;2023-08-06T04:47:30;2.58;;;0.95;;
21822;SDS011;11074;48.596;9.238;2023-08-06T04:49:56;2.70;;;0.98;;
21822;SDS011;11074;48.596;9.238;2023-08-06T04:52:22;1.90;;;0.90;;
21822;SDS011;11074;48.596;9.238;2023-08-06T04:54:47;3.60;;;1.02;;
21822;SDS011;11074;48.596;9.238;2023-08-06T04:57:13;1.48;;;0.88;;
21822;SDS011;11074;48.596;9.238;2023-08-06T04:59:38;2.70;;;0.90;;
21822;SDS011;11074;48.596;9.238;2023-08-06T05:02:04;2.60;;;0.80;;
21822;SDS011;11074;48.596;9.238;2023-08-06T05:04:30;3.95;;;0.90;;
21822;SDS011;11074;48.596;9.238;2023-08-06T05:06:56;2.83;;;0.95;;
21822;SDS011;11074;48.596;9.238;2023-08-06T05:09:21;2.88;;;0.90;;
21822;SDS011;11074;48.596;9.238;2023-08-06T05:11:47;2.70;;;0.90;;
21822;SDS011;11074;48.596;9.238;2023-08-06T05:14:14;1.52;;;0.77;;
21822;SDS011;11074;48.596;9.238;2023-08-06T05:16:39;2.63;;;1.00;;
21822;SDS011;11074;48.596;9.238;2023-08-06T05:19:05;1.48;;;0.88;;
21822;SDS011;11074;48.596;9.238;2023-08-06T05:21:31;1.50;;;0.80;;
21822;SDS011;11074;48.596;9.238;2023-08-06T05:23:56;1.58;;;0.73;;
21822;SDS011;11074;48.596;9.238;2023-08-06T05:26:22;2.08;;;0.70;;
21822;SDS011;11074;48.596;9.238;2023-08-06T05:28:48;3.65;;;0.95;;
21822;SDS011;11074;48.596;9.238;2023-08-06T05:31:13;1.73;;;0.70;;
21822;SDS011;11074;48.596;9.238;2023-08-06T05:33:39;2.22;;;0.77;;
21822;SDS011;11074;48.596;9.238;2023-08-06T05:36:05;2.63;;;1.00;;
21822;SDS011;11074;48.596;9.238;2023-08-06T05:38:30;1.88;;;0.65;;
21822;SDS011;11074;48.596;9.238;2023-08-06T05:40:56;3.40;;;0.77;;
21822;SDS011;11074;48.596;9.238;2023-08-06T05:43:22;2.85;;;0.88;;
21822;SDS011;11074;48.596;9.238;2023-08-06T05:45:51;1.40;;;0.50;;
21822;SDS011;11074;48.596;9.238;2023-08-06T05:48:16;1.27;;;0.70;;
21822;SDS011;11074;48.596;9.238;2023-08-06T05:50:42;2.35;;;0.70;;
21822;SDS011;11074;48.596;9.238;2023-08-06T05:53:08;1.67;;;0.70;;
21822;SDS011;11074;48.596;9.238;2023-08-06T05:55:34;2.95;;;0.70;;
21822;SDS011;11074;48.596;9.238;2023-08-06T05:58:00;1.50;;;0.60;;
21822;SDS011;11074;48.596;9.238;2023-08-06T06:00:26;1.27;;;0.65;;
21822;SDS011;11074;48.596;9.238;2023-08-06T06:02:52;1.17;;;0.50;;
21822;SDS011;11074;48.596;9.238;2023-08-06T06:05:17;2.22;;;0.60;;
21822;SDS011;11074;48.596;9.238;2023-08-06T06:07:43;2.35;;;0.55;;
21822;SDS011;11074;48.596;9.238;2023-08-06T06:10:09;4.28;;;0.77;;
21822;SDS011;11074;48.596;9.238;2023-08-06T06:12:35;1.08;;;0.50;;
21822;SDS011;11074;48.596;9.238;2023-08-06T06:15:00;1.70;;;0.60;;
21822;SDS011;11074;48.596;9.238;2023-08-06T06:17:26;1.80;;;0.73;;
21822;SDS011;11074;48.596;9.238;2023-08-06T06:19:53;2.55;;;0.70;;
21822;SDS011;11074;48.596;9.238;2023-08-06T06:22:19;1.08;;;0.60;;
21822;SDS011;11074;48.596;9.238;2023-08-06T06:24:45;2.28;;;0.85;;
21822;SDS011;11074;48.596;9.238;2023-08-06T06:27:10;1.42;;;0.50;;
21822;SDS011;11074;48.596;9.238;2023-08-06T06:29:36;1.83;;;0.60;;
21822;SDS011;11074;48.596;9.238;2023-08-06T06:32:02;1.13;;;0.50;;
21822;SDS011;11074;48.596;9.238;2023-08-06T06:34:27;2.15;;;0.45;;
21822;SDS011;11074;48.596;9.238;2023-08-06T06:36:53;1.10;;;0.60;;
21822;SDS011;11074;48.596;9.238;2023-08-06T06:39:19;3.30;;;0.60;;
21822;SDS011;11074;48.596;9.238;2023-08-06T06:41:46;1.90;;;0.60;;
21822;SDS011;11074;48.596;9.238;2023-08-06T06:44:11;1.45;;;0.60;;
21822;SDS011;11074;48.596;9.238;2023-08-06T06:46:38;1.30;;;0.50;;
21822;SDS011;11074;48.596;9.238;2023-08-06T06:49:04;1.67;;;0.63;;
21822;SDS011;11074;48.596;9.238;2023-08-06T06:51:29;1.30;;;0.50;;
21822;SDS011;11074;48.596;9.238;2023-08-06T06:53:56;0.77;;;0.47;;
21822;SDS011;11074;48.596;9.238;2023-08-06T06:56:22;1.88;;;0.50;;
21822;SDS011;11074;48.596;9.238;2023-08-06T06:58:48;1.08;;;0.40;;
21822;SDS011;11074;48.596;9.238;2023-08-06T07:01:14;1.20;;;0.40;;
21822;SDS011;11074;48.596;9.238;2023-08-06T07:03:40;2.80;;;0.30;;
21822;SDS011;11074;48.596;9.238;2023-08-06T07:06:05;2.17;;;0.40;;
21822;SDS011;11074;48.596;9.238;2023-08-06T07:08:32;1.38;;;0.47;;
21822;SDS011;11074;48.596;9.238;2023-08-06T07:11:01;1.98;;;0.63;;
21822;SDS011;11074;48.596;9.238;2023-08-06T07:13:28;1.48;;;0.50;;
21822;SDS011;11074;48.596;9.238;2023-08-06T07:15:55;3.35;;;0.60;;
21822;SDS011;11074;48.596;9.238;2023-08-06T07:18:21;1.40;;;0.40;;
21822;SDS011;11074;48.596;9.238;2023-08-06T07:20:48;0.73;;;0.30;;
21822;SDS011;11074;48.596;9.238;2023-08-06T07:23:20;0.40;;;0.30;;
21822;SDS011;11074;48.596;9.238;2023-08-06T07:25:47;0.75;;;0.30;;
21822;SDS011;11074;48.596;9.238;2023-08-06T07:28:14;1.98;;;0.50;;
21822;SDS011;11074;48.596;9.238;2023-08-06T07:30:40;1.13;;;0.40;;
21822;SDS011;11074;48.596;9.238;2023-08-06T07:33:08;0.47;;;0.25;;
21822;SDS011;11074;48.596;9.238;2023-08-06T07:35:34;1.63;;;0.50;;
21822;SDS011;11074;48.596;9.238;2023-08-06T07:38:00;1.95;;;0.32;;
21822;SDS011;11074;48.596;9.238;2023-08-06T07:40:26;1.65;;;0.30;;
21822;SDS011;11074;48.596;9.238;2023-08-06T07:42:52;1.90;;;0.60;;
21822;SDS011;11074;48.596;9.238;2023-08-06T07:45:18;2.08;;;0.40;;
21822;SDS011;11074;48.596;9.238;2023-08-06T07:47:44;0.90;;;0.47;;
21822;SDS011;11074;48.596;9.238;2023-08-06T07:50:10;0.73;;;0.30;;
21822;SDS011;11074;48.596;9.238;2023-08-06T07:52:35;0.32;;;0.20;;
21822;SDS011;11074;48.596;9.238;2023-08-06T07:55:01;1.23;;;0.43;;
21822;SDS011;11074;48.596;9.238;2023-08-06T07:57:30;1.80;;;0.30;;
21822;SDS011;11074;48.596;9.238;2023-08-06T07:59:59;0.32;;;0.20;;
21822;SDS011;11074;48.596;9.238;2023-08-06T08:02:26;0.68;;;0.20;;
21822;SDS011;11074;48.596;9.238;2023-08-06T08:04:52;0.73;;;0.30;;
21822;SDS011;11074;48.596;9.238;2023-08-06T08:07:18;0.57;;;0.30;;
21822;SDS011;11074;48.596;9.238;2023-08-06T08:09:44;1.25;;;0.20;;
21822;SDS011;11074;48.596;9.238;2023-08-06T08:12:10;0.55;;;0.20;;
21822;SDS011;11074;48.596;9.238;2023-08-06T08:14:35;0.43;;;0.20;;
21822;SDS011;11074;48.596;9.238;2023-08-06T08:17:04;0.88;;;0.30;;
21822;SDS011;11074;48.596;9.238;2023-08-06T08:19:31;0.30;;;0.20;;
21822;SDS011;11074;48.596;9.238;2023-08-06T08:21:57;1.20;;;0.47;;
21822;SDS011;11074;48.596;9.238;2023-08-06T08:24:23;1.25;;;0.20;;
21822;SDS011;11074;48.596;9.238;2023-08-06T08:26:50;2.13;;;0.20;;
21822;SDS011;11074;48.596;9.238;2023-08-06T08:29:17;0.60;;;0.20;;
21822;SDS011;11074;48.596;9.238;2023-08-06T08:31:44;0.10;;;0.10;;
21822;SDS011;11074;48.596;9.238;2023-08-06T08:34:10;0.65;;;0.38;;
21822;SDS011;11074;48.596;9.238;2023-08-06T08:36:36;0.57;;;0.20;;
21822;SDS011;11074;48.596;9.238;2023-08-06T08:39:02;0.50;;;0.20;;
21822;SDS011;11074;48.596;9.238;2023-08-06T08:41:29;0.45;;;0.10;;
21822;SDS011;11074;48.596;9.238;2023-08-06T08:43:56;0.10;;;0.10;;
21822;SDS011;11074;48.596;9.238;2023-08-06T08:46:26;0.40;;;0.10;;
21822;SDS011;11074;48.596;9.238;2023-08-06T08:48:55;0.55;;;0.17;;
21822;SDS011;11074;48.596;9.238;2023-08-06T08:51:24;0.90;;;0.20;;
21822;SDS011;11074;48.596;9.238;2023-08-06T08:53:54;0.30;;;0.20;;
21822;SDS011;11074;48.596;9.238;2023-08-06T08:56:22;0.20;;;0.20;;
21822;SDS011;11074;48.596;9.238;2023-08-06T08:58:49;0.10;;;0.10;;
21822;SDS011;11074;48.596;9.238;2023-08-06T09:01:18;0.40;;;0.10;;
21822;SDS011;11074;48.596;9.238;2023-08-06T09:03:46;0.10;;;0.10;;
21822;SDS011;11074;48.596;9.238;2023-08-06T09:06:12;1.58;;;0.20;;
21822;SDS011;11074;48.596;9.238;2023-08-06T09:08:43;0.00;;;0.00;;
21822;SDS011;11074;48.596;9.238;2023-08-06T09:11:25;0.30;;;0.10;;
21822;SDS011;11074;48.596;9.238;2023-08-06T09:13:52;0.17;;;0.10;;
21822;SDS011;11074;48.596;9.238;2023-08-06T09:16:20;0.52;;;0.10;;
21822;SDS011;11074;48.596;9.238;2023-08-06T09:18:46;0.65;;;0.10;;
21822;SDS011;11074;48.596;9.238;2023-08-06T09:21:15;0.60;;;0.20;;
21822;SDS011;11074;48.596;9.238;2023-08-06T09:23:43;0.10;;;0.10;;
21822;SDS011;11074;48.596;9.238;2023-08-06T09:26:10;0.20;;;0.03;;
21822;SDS011;11074;48.596;9.238;2023-08-06T09:28:38;0.13;;;0.10;;
21822;SDS011;11074;48.596;9.238;2023-08-06T09:31:07;0.17;;;0.13;;
21822;SDS011;11074;48.596;9.238;2023-08-06T09:33:35;1.15;;;0.30;;
21822;SDS011;11074;48.596;9.238;2023-08-06T09:36:12;0.22;;;0.10;;
21822;SDS011;11074;48.596;9.238;2023-08-06T09:38:38;0.40;;;0.15;;
21822;SDS011;11074;48.596;9.238;2023-08-06T09:41:05;0.52;;;0.20;;
21822;SDS011;11074;48.596;9.238;2023-08-06T09:43:44;1.13;;;0.20;;
21822;SDS011;11074;48.596;9.238;2023-08-06T09:46:11;0.10;;;0.10;;
21822;SDS011;11074;48.596;9.238;2023-08-06T09:48:41;0.40;;;0.20;;
21822;SDS011;11074;48.596;9.238;2023-08-06T09:51:11;0.00;;;0.00;;
21822;SDS011;11074;48.596;9.238;2023-08-06T09:53:39;0.17;;;0.03;;
21822;SDS011;11074;48.596;9.238;2023-08-06T09:56:08;0.22;;;0.10;;
21822;SDS011;11074;48.596;9.238;2023-08-06T09:58:38;0.80;;;0.17;;
21822;SDS011;11074;48.596;9.238;2023-08-06T10:01:05;0.10;;;0.10;;
21822;SDS011;11074;48.596;9.238;2023-08-06T10:03:31;0.10;;;0.10;;
21822;SDS011;11074;48.596;9.238;2023-08-06T10:05:59;0.60;;;0.10;;
21822;SDS011;11074;48.596;9.238;2023-08-06T10:08:27;0.93;;;0.30;;
21822;SDS011;11074;48.596;9.238;2023-08-06T10:10:52;0.90;;;0.20;;
21822;SDS011;11074;48.596;9.238;2023-08-06T10:13:18;1.92;;;0.13;;
21822;SDS011;11074;48.596;9.238;2023-08-06T10:15:47;0.10;;;0.10;;
21822;SDS011;11074;48.596;9.238;2023-08-06T10:18:15;0.22;;;0.10;;
21822;SDS011;11074;48.596;9.238;2023-08-06T10:20:46;0.60;;;0.17;;
21822;SDS011;11074;48.596;9.238;2023-08-06T10:23:12;0.65;;;0.30;;
21822;SDS011;11074;48.596;9.238;2023-08-06T10:25:42;1.02;;;0.20;;
21822;SDS011;11074;48.596;9.238;2023-08-06T10:28:09;0.30;;;0.17;;
21822;SDS011;11074;48.596;9.238;2023-08-06T10:30:43;0.28;;;0.20;;
21822;SDS011;11074;48.596;9.238;2023-08-06T10:33:11;0.20;;;0.10;;
21822;SDS011;11074;48.596;9.238;2023-08-06T10:35:40;0.20;;;0.10;;
21822;SDS011;11074;48.596;9.238;2023-08-06T10:38:15;0.10;;;0.10;;
21822;SDS011;11074;48.596;9.238;2023-08-06T10:40:50;0.80;;;0.25;;
21822;SDS011;11074;48.596;9.238;2023-08-06T10:43:51;0.10;;;0.10;;
21822;SDS011;11074;48.596;9.238;2023-08-06T10:46:21;0.57;;;0.20;;
21822;SDS011;11074;48.596;9.238;2023-08-06T10:48:49;0.15;;;0.10;;
21822;SDS011;11074;48.596;9.238;2023-08-06T10:51:14;0.45;;;0.10;;
21822;SDS011;11074;48.596;9.238;2023-08-06T10:53:47;0.10;;;0.10;;
21822;SDS011;11074;48.596;9.238;2023-08-06T10:56:14;1.65;;;0.20;;
21822;SDS011;11074;48.596;9.238;2023-08-06T10:58:43;0.15;;;0.10;;
21822;SDS011;11074;48.596;9.238;2023-08-06T11:01:12;0.13;;;0.10;;
21822;SDS011;11074;48.596;9.238;2023-08-06T11:03:40;0.10;;;0.10;;
21822;SDS011;11074;48.596;9.238;2023-08-06T11:06:08;0.63;;;0.10;;
21822;SDS011;11074;48.596;9.238;2023-08-06T11:08:36;0.47;;;0.10;;
21822;SDS011;11074;48.596;9.238;2023-08-06T11:11:10;1.67;;;0.10;;
21822;SDS011;11074;48.596;9.238;2023-08-06T11:13:38;0.10;;;0.10;;
21822;SDS011;11074;48.596;9.238;2023-08-06T11:16:05;0.40;;;0.10;;
21822;SDS011;11074;48.596;9.238;2023-08-06T11:18:32;0.13;;;0.13;;
21822;SDS011;11074;48.596;9.238;2023-08-06T11:20:59;0.35;;;0.35;;
21822;SDS011;11074;48.596;9.238;2023-08-06T11:23:29;0.70;;;0.10;;
21822;SDS011;11074;48.596;9.238;2023-08-06T11:25:56;0.13;;;0.13;;
21822;SDS011;11074;48.596;9.238;2023-08-06T11:28:23;0.25;;;0.10;;
21822;SDS011;11074;48.596;9.238;2023-08-06T11:30:49;2.22;;;0.10;;
21822;SDS011;11074;48.596;9.238;2023-08-06T11:33:22;1.08;;;0.10;;
21822;SDS011;11074;48.596;9.238;2023-08-06T11:35:50;0.20;;;0.20;;
21822;SDS011;11074;48.596;9.238;2023-08-06T11:38:16;0.30;;;0.15;;
21822;SDS011;11074;48.596;9.238;2023-08-06T11:40:44;0.47;;;0.10;;
21822;SDS011;11074;48.596;9.238;2023-08-06T11:43:10;0.20;;;0.20;;
21822;SDS011;11074;48.596;9.238;2023-08-06T11:45:37;0.85;;;0.20;;
21822;SDS011;11074;48.596;9.238;2023-08-06T11:48:03;0.55;;;0.28;;
21822;SDS011;11074;48.596;9.238;2023-08-06T11:50:30;0.10;;;0.10;;
21822;SDS011;11074;48.596;9.238;2023-08-06T11:52:56;0.38;;;0.20;;
21822;SDS011;11074;48.596;9.238;2023-08-06T11:55:24;0.20;;;0.20;;
21822;SDS011;11074;48.596;9.238;2023-08-06T11:57:51;0.52;;;0.30;;
21822;SDS011;11074;48.596;9.238;2023-08-06T12:00:17;0.55;;;0.20;;
21822;SDS011;11074;48.596;9.238;2023-08-06T12:02:45;0.25;;;0.10;;
21822;SDS011;11074;48.596;9.238;2023-08-06T12:05:30;0.95;;;0.17;;
21822;SDS011;11074;48.596;9.238;2023-08-06T12:07:59;0.20;;;0.20;;
21822;SDS011;11074;48.596;9.238;2023-08-06T12:10:26;0.10;;;0.10;;
21822;SDS011;11074;48.596;9.238;2023-08-06T12:12:55;0.10;;;0.10;;
21822;SDS011;11074;48.596;9.238;2023-08-06T12:15:22;0.38;;;0.20;;
21822;SDS011;11074;48.596;9.238;2023-08-06T12:17:49;0.20;;;0.20;;
21822;SDS011;11074;48.596;9.238;2023-08-06T12:20:15;1.98;;;0.20;;
21822;SDS011;11074;48.596;9.238;2023-08-06T12:22:41;0.20;;;0.20;;
21822;SDS011;11074;48.596;9.238;2023-08-06T12:25:09;4.05;;;0.50;;
21822;SDS011;11074;48.596;9.238;2023-08-06T12:27:37;2.05;;;0.55;;
21822;SDS011;11074;48.596;9.238;2023-08-06T12:30:06;1.83;;;0.30;;
21822;SDS011;11074;48.596;9.238;2023-08-06T12:32:33;0.35;;;0.30;;
21822;SDS011;11074;48.596;9.238;2023-08-06T12:34:59;0.40;;;0.30;;
21822;SDS011;11074;48.596;9.238;2023-08-06T12:37:26;1.38;;;0.40;;
21822;SDS011;11074;48.596;9.238;2023-08-06T12:39:52;0.82;;;0.50;;
21822;SDS011;11074;48.596;9.238;2023-08-06T12:42:18;1.35;;;0.50;;
21822;SDS011;11074;48.596;9.238;2023-08-06T12:44:43;1.17;;;0.60;;
21822;SDS011;11074;48.596;9.238;2023-08-06T12:47:09;0.90;;;0.50;;
21822;SDS011;11074;48.596;9.238;2023-08-06T12:49:35;1.15;;;0.43;;
21822;SDS011;11074;48.596;9.238;2023-08-06T12:52:01;1.80;;;0.60;;
21822;SDS011;11074;48.596;9.238;2023-08-06T12:54:29;0.77;;;0.50;;
21822;SDS011;11074;48.596;9.238;2023-08-06T12:57:01;2.00;;;0.70;;
21822;SDS011;11074;48.596;9.238;2023-08-06T12:59:28;1.50;;;0.80;;
21822;SDS011;11074;48.596;9.238;2023-08-06T13:01:53;1.92;;;0.65;;
21822;SDS011;11074;48.596;9.238;2023-08-06T13:04:19;2.53;;;0.45;;
21822;SDS011;11074;48.596;9.238;2023-08-06T13:06:45;2.00;;;0.50;;
21822;SDS011;11074;48.596;9.238;2023-08-06T13:09:11;0.40;;;0.40;;
21822;SDS011;11074;48.596;9.238;2023-08-06T13:11:38;1.60;;;0.60;;
21822;SDS011;11074;48.596;9.238;2023-08-06T13:14:06;0.65;;;0.50;;
21822;SDS011;11074;48.596;9.238;2023-08-06T13:16:34;1.48;;;0.57;;
21822;SDS011;11074;48.596;9.238;2023-08-06T13:19:02;0.57;;;0.40;;
21822;SDS011;11074;48.596;9.238;2023-08-06T13:21:32;0.57;;;0.50;;
21822;SDS011;11074;48.596;9.238;2023-08-06T13:24:28;0.82;;;0.47;;
21822;SDS011;11074;48.596;9.238;2023-08-06T13:26:54;1.45;;;0.60;;
21822;SDS011;11074;48.596;9.238;2023-08-06T13:29:20;0.52;;;0.43;;
21822;SDS011;11074;48.596;9.238;2023-08-06T13:31:46;0.55;;;0.50;;
21822;SDS011;11074;48.596;9.238;2023-08-06T13:34:12;0.98;;;0.35;;
21822;SDS011;11074;48.596;9.238;2023-08-06T13:36:37;0.52;;;0.45;;
21822;SDS011;11074;48.596;9.238;2023-08-06T13:39:03;0.85;;;0.52;;
21822;SDS011;11074;48.596;9.238;2023-08-06T13:41:30;0.57;;;0.40;;
21822;SDS011;11074;48.596;9.238;2023-08-06T13:43:56;0.90;;;0.40;;
21822;SDS011;11074;48.596;9.238;2023-08-06T13:46:22;1.17;;;0.38;;
21822;SDS011;11074;48.596;9.238;2023-08-06T13:48:48;1.30;;;0.50;;
21822;SDS011;11074;48.596;9.238;2023-08-06T13:51:16;1.02;;;0.52;;
21822;SDS011;11074;48.596;9.238;2023-08-06T13:53:42;0.63;;;0.40;;
21822;SDS011;11074;48.596;9.238;2023-08-06T13:56:09;1.35;;;0.32;;
21822;SDS011;11074;48.596;9.238;2023-08-06T13:58:36;0.43;;;0.43;;
21822;SDS011;11074;48.596;9.238;2023-08-06T14:01:02;0.30;;;0.30;;
21822;SDS011;11074;48.596;9.238;2023-08-06T14:03:28;0.40;;;0.30;;
21822;SDS011;11074;48.596;9.238;2023-08-06T14:05:54;0.43;;;0.38;;
21822;SDS011;11074;48.596;9.238;2023-08-06T14:08:25;0.30;;;0.30;;
21822;SDS011;11074;48.596;9.238;2023-08-06T14:10:51;0.57;;;0.43;;
21822;SDS011;11074;48.596;9.238;2023-08-06T14:13:17;0.88;;;0.40;;
21822;SDS011;11074;48.596;9.238;2023-08-06T14:15:43;0.75;;;0.40;;
21822;SDS011;11074;48.596;9.238;2023-08-06T14:18:11;0.35;;;0.30;;
21822;SDS011;11074;48.596;9.238;2023-08-06T14:20:41;0.50;;;0.40;;
21822;SDS011;11074;48.596;9.238;2023-08-06T14:23:07;0.57;;;0.40;;
21822;SDS011;11074;48.596;9.238;2023-08-06T14:25:33;0.73;;;0.50;;
21822;SDS011;11074;48.596;9.238;2023-08-06T14:27:58;0.30;;;0.20;;
21822;SDS011;11074;48.596;9.238;2023-08-06T14:30:24;0.50;;;0.50;;
21822;SDS011;11074;48.596;9.238;2023-08-06T14:32:50;0.40;;;0.30;;
21822;SDS011;11074;48.596;9.238;2023-08-06T14:35:16;0.80;;;0.43;;
21822;SDS011;11074;48.596;9.238;2023-08-06T14:37:41;0.50;;;0.43;;
21822;SDS011;11074;48.596;9.238;2023-08-06T14:40:08;0.45;;;0.30;;
21822;SDS011;11074;48.596;9.238;2023-08-06T14:42:35;0.77;;;0.40;;
21822;SDS011;11074;48.596;9.238;2023-08-06T14:45:00;0.85;;;0.30;;
21822;SDS011;11074;48.596;9.238;2023-08-06T14:47:27;0.57;;;0.40;;
21822;SDS011;11074;48.596;9.238;2023-08-06T14:49:52;0.50;;;0.30;;